Time;durP1;ratioP1;P1;durP2;ratioP2;P2;SDS_P1;SDS_P2;PMS_P1;PMS_P2;Temp;Humidity;BMP_temperature;BMP_pressure;BME280_temperature;BME280_humidity;BME280_pressure;Samples;Min_cycle;Max_cycle;Signal;HPM_P1;HPM_P2
2021/10/22 00:01:00;;;;;;;23.95;3.17;;;;;;;;;;5094500;28;20413;-76
2021/10/22 00:03:26;;;;;;;16.67;3.30;;;;;;;;;;5094173;28;20042;-77
2021/10/22 00:05:51;;;;;;;17.88;3.60;;;;;;;;;;5094476;28;20028;-77
2021/10/22 00:08:17;;;;;;;25.42;4.85;;;;;;;;;;5094203;28;20039;-76
2021/10/22 00:10:42;;;;;;;15.18;2.90;;;;;;;;;;5094447;28;20043;-76
2021/10/22 00:13:09;;;;;;;22.92;3.58;;;;;;;;;;5093866;28;20028;-76
2021/10/22 00:15:34;;;;;;;12.40;2.97;;;;;;;;;;5093873;28;20068;-77
2021/10/22 00:18:00;;;;;;;11.38;4.32;;;;;;;;;;5094017;28;20071;-76
2021/10/22 00:20:26;;;;;;;15.65;3.22;;;;;;;;;;5092735;28;20397;-77
2021/10/22 00:22:52;;;;;;;15.70;3.60;;;;;;;;;;5093266;28;20028;-76
2021/10/22 00:25:19;;;;;;;16.58;3.92;;;;;;;;;;5093508;28;20501;-76
2021/10/22 00:27:45;;;;;;;11.25;2.75;;;;;;;;;;5093480;28;20039;-76
2021/10/22 00:30:11;;;;;;;11.43;2.75;;;;;;;;;;5092306;28;20039;-77
2021/10/22 00:32:36;;;;;;;21.13;3.30;;;;;;;;;;5093737;28;20088;-76
2021/10/22 00:35:02;;;;;;;15.57;4.03;;;;;;;;;;5093854;28;20036;-77
2021/10/22 00:37:27;;;;;;;16.58;3.33;;;;;;;;;;5092294;28;20197;-76
2021/10/22 00:39:53;;;;;;;20.65;2.97;;;;;;;;;;5074338;28;20074;-76
2021/10/22 00:42:23;;;;;;;16.38;3.42;;;;;;;;;;5093439;28;20646;-76
2021/10/22 00:44:50;;;;;;;16.63;3.00;;;;;;;;;;5093666;28;20024;-77
2021/10/22 00:47:16;;;;;;;14.45;2.97;;;;;;;;;;5093657;28;20123;-77
2021/10/22 00:49:42;;;;;;;18.60;3.28;;;;;;;;;;5093478;28;20543;-77
2021/10/22 00:52:08;;;;;;;16.30;3.50;;;;;;;;;;5093095;28;20123;-77
2021/10/22 00:54:35;;;;;;;15.23;2.58;;;;;;;;;;5092219;28;20155;-77
2021/10/22 00:57:01;;;;;;;11.35;2.78;;;;;;;;;;5093832;28;20036;-76
2021/10/22 00:59:27;;;;;;;19.23;3.30;;;;;;;;;;5093325;28;20067;-77
2021/10/22 01:01:52;;;;;;;14.30;2.50;;;;;;;;;;5094586;28;20087;-76
2021/10/22 01:04:18;;;;;;;17.20;2.72;;;;;;;;;;5099052;28;20032;-76
2021/10/22 01:06:43;;;;;;;19.98;3.67;;;;;;;;;;5100241;28;20074;-76
2021/10/22 01:09:11;;;;;;;14.20;3.78;;;;;;;;;;5099760;28;20032;-76
2021/10/22 01:11:38;;;;;;;13.55;3.25;;;;;;;;;;5099576;28;20044;-76
2021/10/22 01:14:04;;;;;;;17.80;3.92;;;;;;;;;;5100374;28;20394;-76
2021/10/22 01:16:30;;;;;;;12.88;2.90;;;;;;;;;;5099945;28;20032;-77
2021/10/22 01:18:55;;;;;;;14.70;3.17;;;;;;;;;;5098702;28;20028;-76
2021/10/22 01:21:21;;;;;;;17.67;3.05;;;;;;;;;;5098524;28;20040;-77
2021/10/22 01:23:47;;;;;;;18.73;4.05;;;;;;;;;;5099703;28;20032;-76
2021/10/22 01:26:13;;;;;;;12.05;2.80;;;;;;;;;;5099123;28;20100;-76
2021/10/22 01:28:40;;;;;;;16.10;3.08;;;;;;;;;;5098738;28;20158;-76
2021/10/22 01:31:06;;;;;;;17.33;3.17;;;;;;;;;;5081357;28;20161;-76
2021/10/22 01:33:32;;;;;;;18.25;3.40;;;;;;;;;;5100030;28;20127;-76
2021/10/22 01:35:57;;;;;;;19.50;3.42;;;;;;;;;;5099857;28;20040;-76
2021/10/22 01:38:25;;;;;;;22.50;3.83;;;;;;;;;;5099855;28;20169;-76
2021/10/22 01:40:55;;;;;;;19.88;2.90;;;;;;;;;;5080761;28;20044;-77
2021/10/22 01:43:22;;;;;;;16.33;3.85;;;;;;;;;;5098847;28;20032;-76
2021/10/22 01:45:49;;;;;;;23.92;4.55;;;;;;;;;;5098232;28;20023;-76
2021/10/22 01:48:14;;;;;;;20.80;2.80;;;;;;;;;;5099654;28;20028;-76
2021/10/22 01:50:40;;;;;;;17.40;3.70;;;;;;;;;;5099215;28;20359;-76
2021/10/22 01:53:07;;;;;;;25.02;4.18;;;;;;;;;;5099060;28;20519;-76
2021/10/22 01:55:32;;;;;;;21.05;3.20;;;;;;;;;;5099639;28;20072;-76
2021/10/22 01:57:58;;;;;;;21.35;3.35;;;;;;;;;;5099274;28;20035;-76
2021/10/22 02:00:24;;;;;;;14.98;2.95;;;;;;;;;;5098015;28;20093;-76
2021/10/22 02:02:49;;;;;;;13.05;2.72;;;;;;;;;;5098915;28;20524;-76
2021/10/22 02:05:15;;;;;;;18.80;3.35;;;;;;;;;;5099334;28;20480;-76
2021/10/22 02:07:40;;;;;;;19.30;3.88;;;;;;;;;;5099527;28;20063;-77
2021/10/22 02:10:07;;;;;;;20.38;3.28;;;;;;;;;;5100077;28;20040;-77
2021/10/22 02:12:32;;;;;;;22.85;3.40;;;;;;;;;;5099550;28;20047;-77
2021/10/22 02:14:58;;;;;;;17.35;2.78;;;;;;;;;;5095490;28;20390;-78
2021/10/22 02:17:23;;;;;;;18.90;2.83;;;;;;;;;;5099542;28;20389;-78
2021/10/22 02:19:49;;;;;;;11.38;2.70;;;;;;;;;;5110526;28;20039;-79
2021/10/22 02:22:14;;;;;;;19.15;3.55;;;;;;;;;;5111330;28;20040;-77
2021/10/22 02:24:40;;;;;;;12.90;2.80;;;;;;;;;;5096527;28;20118;-77
2021/10/22 02:27:06;;;;;;;16.52;3.00;;;;;;;;;;5095089;28;20070;-77
2021/10/22 02:29:31;;;;;;;13.43;2.42;;;;;;;;;;5094452;28;20168;-77
2021/10/22 02:31:57;;;;;;;23.15;2.90;;;;;;;;;;5095002;28;20039;-77
2021/10/22 02:34:23;;;;;;;11.05;2.63;;;;;;;;;;5095377;28;20417;-77
2021/10/22 02:36:49;;;;;;;15.02;2.78;;;;;;;;;;5096147;28;20375;-77
2021/10/22 02:39:15;;;;;;;16.25;2.65;;;;;;;;;;5094557;28;20123;-77
2021/10/22 02:41:45;;;;;;;14.00;2.85;;;;;;;;;;5094653;28;20470;-77
2021/10/22 02:44:11;;;;;;;23.35;3.25;;;;;;;;;;5095953;28;20040;-77
2021/10/22 02:46:37;;;;;;;21.08;3.05;;;;;;;;;;5096025;28;20040;-77
2021/10/22 02:49:02;;;;;;;22.17;3.28;;;;;;;;;;5094411;28;20362;-77
2021/10/22 02:51:28;;;;;;;18.35;2.67;;;;;;;;;;5095594;28;20039;-77
2021/10/22 02:53:54;;;;;;;19.80;3.13;;;;;;;;;;5097649;28;20046;-78
2021/10/22 02:56:21;;;;;;;19.55;3.53;;;;;;;;;;5111233;28;20059;-78
2021/10/22 02:58:48;;;;;;;17.95;3.38;;;;;;;;;;5110183;28;20056;-79
2021/10/22 03:01:13;;;;;;;21.92;3.33;;;;;;;;;;5101525;28;20044;-77
2021/10/22 03:03:38;;;;;;;15.90;3.63;;;;;;;;;;5096178;28;20042;-77
2021/10/22 03:06:04;;;;;;;15.68;3.47;;;;;;;;;;5095876;28;20040;-77
2021/10/22 03:08:29;;;;;;;17.85;3.08;;;;;;;;;;5095417;28;20036;-77
2021/10/22 03:10:54;;;;;;;21.88;3.60;;;;;;;;;;5094667;28;20496;-76
2021/10/22 03:13:20;;;;;;;15.35;3.65;;;;;;;;;;5094123;28;20111;-77
2021/10/22 03:15:46;;;;;;;10.65;2.42;;;;;;;;;;5095370;28;20020;-77
2021/10/22 03:18:11;;;;;;;15.75;3.45;;;;;;;;;;5095011;28;20136;-77
2021/10/22 03:20:37;;;;;;;12.75;3.03;;;;;;;;;;5095009;28;20039;-77
2021/10/22 03:23:05;;;;;;;14.20;2.22;;;;;;;;;;5094065;28;20067;-77
2021/10/22 03:25:31;;;;;;;25.40;3.47;;;;;;;;;;5093250;28;20028;-77
2021/10/22 03:28:04;;;;;;;16.70;4.20;;;;;;;;;;5095065;28;20036;-77
2021/10/22 03:30:34;;;;;;;21.33;3.60;;;;;;;;;;5094770;28;20043;-76
2021/10/22 03:33:00;;;;;;;19.20;2.95;;;;;;;;;;5094817;28;20520;-76
2021/10/22 03:35:26;;;;;;;13.63;3.13;;;;;;;;;;5092816;28;20058;-76
2021/10/22 03:37:52;;;;;;;21.85;2.78;;;;;;;;;;5094494;28;20046;-76
2021/10/22 03:40:18;;;;;;;16.70;4.72;;;;;;;;;;5094579;28;20529;-77
2021/10/22 03:42:43;;;;;;;21.40;4.28;;;;;;;;;;5094680;28;20085;-77
2021/10/22 03:45:10;;;;;;;21.55;4.55;;;;;;;;;;5094472;28;20504;-77
2021/10/22 03:47:35;;;;;;;27.77;3.38;;;;;;;;;;5094469;28;20097;-77
2021/10/22 03:50:00;;;;;;;16.75;3.35;;;;;;;;;;5094635;28;20477;-77
2021/10/22 03:52:26;;;;;;;17.73;3.08;;;;;;;;;;5094050;28;20128;-77
2021/10/22 03:54:51;;;;;;;19.55;3.05;;;;;;;;;;5094215;28;20479;-77
2021/10/22 03:57:17;;;;;;;22.67;3.63;;;;;;;;;;5093158;28;20039;-77
2021/10/22 03:59:42;;;;;;;20.30;2.88;;;;;;;;;;5094300;28;20080;-77
2021/10/22 04:02:08;;;;;;;17.63;3.17;;;;;;;;;;5094120;28;20092;-77
2021/10/22 04:04:34;;;;;;;14.20;2.63;;;;;;;;;;5092044;28;20131;-77
2021/10/22 04:07:01;;;;;;;18.60;3.75;;;;;;;;;;5093957;28;20036;-77
2021/10/22 04:09:28;;;;;;;20.60;3.30;;;;;;;;;;5093886;28;20153;-77
2021/10/22 04:11:54;;;;;;;15.60;2.83;;;;;;;;;;5094116;28;20040;-77
2021/10/22 04:14:20;;;;;;;25.90;4.28;;;;;;;;;;5094011;28;20047;-77
2021/10/22 04:16:45;;;;;;;13.85;2.90;;;;;;;;;;5092776;28;20034;-76
2021/10/22 04:19:11;;;;;;;13.70;2.70;;;;;;;;;;5094208;28;20047;-77
2021/10/22 04:21:37;;;;;;;23.25;5.28;;;;;;;;;;5092785;28;20493;-77
2021/10/22 04:24:03;;;;;;;17.52;2.60;;;;;;;;;;5092854;28;20572;-77
2021/10/22 04:26:28;;;;;;;25.40;3.90;;;;;;;;;;5093933;28;20397;-76
2021/10/22 04:28:54;;;;;;;20.65;3.38;;;;;;;;;;5092476;28;20040;-76
2021/10/22 04:31:19;;;;;;;15.80;3.20;;;;;;;;;;5093852;28;20037;-76
2021/10/22 04:33:44;;;;;;;10.30;2.55;;;;;;;;;;5093772;28;20479;-77
2021/10/22 04:36:12;;;;;;;20.02;3.20;;;;;;;;;;5093263;28;20081;-76
2021/10/22 04:41:21;;;;;;;17.55;2.92;;;;;;;;;;5093159;28;20043;-76
2021/10/22 04:43:51;;;;;;;15.52;2.67;;;;;;;;;;5093478;28;20480;-76
2021/10/22 04:46:16;;;;;;;18.05;3.03;;;;;;;;;;5093575;28;20090;-76
2021/10/22 04:48:42;;;;;;;10.48;2.75;;;;;;;;;;5093601;28;20509;-77
2021/10/22 04:51:07;;;;;;;13.45;3.42;;;;;;;;;;5093639;28;20073;-76
2021/10/22 04:53:33;;;;;;;14.70;4.18;;;;;;;;;;5092154;28;20046;-77
2021/10/22 04:55:58;;;;;;;24.55;4.45;;;;;;;;;;5093643;28;20036;-77
2021/10/22 04:58:24;;;;;;;17.23;3.65;;;;;;;;;;5093603;28;20090;-77
2021/10/22 05:00:49;;;;;;;18.90;4.07;;;;;;;;;;5093539;28;20040;-77
2021/10/22 05:03:15;;;;;;;27.52;4.00;;;;;;;;;;5093326;28;20039;-77
2021/10/22 05:05:40;;;;;;;12.88;3.05;;;;;;;;;;5093349;28;20117;-77
2021/10/22 05:08:05;;;;;;;21.48;4.07;;;;;;;;;;5092872;28;20436;-76
2021/10/22 05:10:31;;;;;;;19.35;4.68;;;;;;;;;;5092073;28;20493;-77
2021/10/22 05:12:59;;;;;;;20.80;3.60;;;;;;;;;;5092169;28;20036;-76
2021/10/22 05:15:25;;;;;;;19.45;3.28;;;;;;;;;;5092173;28;20473;-76
2021/10/22 05:17:50;;;;;;;15.70;3.22;;;;;;;;;;5092739;28;20039;-77
2021/10/22 05:20:16;;;;;;;9.50;3.33;;;;;;;;;;5093025;28;20051;-76
2021/10/22 05:22:42;;;;;;;16.63;3.38;;;;;;;;;;5092019;28;20490;-77
2021/10/22 05:25:09;;;;;;;13.70;3.03;;;;;;;;;;5092775;28;20040;-77
2021/10/22 05:27:35;;;;;;;12.88;3.15;;;;;;;;;;5093052;28;20032;-76
2021/10/22 05:30:01;;;;;;;21.23;3.53;;;;;;;;;;5093126;28;20039;-77
2021/10/22 05:32:26;;;;;;;15.90;3.75;;;;;;;;;;5093292;28;20481;-77
2021/10/22 05:34:52;;;;;;;26.23;4.53;;;;;;;;;;5093337;28;20036;-76
2021/10/22 05:37:18;;;;;;;16.25;3.13;;;;;;;;;;5091661;28;20019;-76
2021/10/22 05:39:44;;;;;;;16.92;3.42;;;;;;;;;;5091479;28;20098;-76
2021/10/22 05:42:09;;;;;;;15.90;4.18;;;;;;;;;;5092932;28;20064;-76
2021/10/22 05:44:35;;;;;;;20.40;3.13;;;;;;;;;;5093146;28;20028;-77
2021/10/22 05:47:00;;;;;;;10.27;2.63;;;;;;;;;;5092957;28;20044;-76
2021/10/22 05:49:26;;;;;;;16.30;3.67;;;;;;;;;;5081664;28;20044;-77
2021/10/22 05:51:52;;;;;;;11.40;3.13;;;;;;;;;;5074774;28;20089;-76
2021/10/22 05:54:19;;;;;;;14.93;2.90;;;;;;;;;;5076105;28;20119;-76
2021/10/22 05:56:44;;;;;;;13.73;3.13;;;;;;;;;;5074999;28;20039;-76
2021/10/22 05:59:10;;;;;;;12.35;3.60;;;;;;;;;;5076463;28;20028;-76
2021/10/22 06:01:35;;;;;;;15.75;3.10;;;;;;;;;;5074861;28;20032;-77
2021/10/22 06:04:01;;;;;;;8.68;2.53;;;;;;;;;;5076019;28;20127;-77
2021/10/22 06:06:27;;;;;;;10.55;2.30;;;;;;;;;;5076189;28;20048;-76
2021/10/22 06:08:53;;;;;;;14.13;3.15;;;;;;;;;;5080371;28;20028;-77
2021/10/22 06:11:19;;;;;;;15.60;3.33;;;;;;;;;;5096099;28;20035;-77
2021/10/22 06:13:45;;;;;;;12.73;3.10;;;;;;;;;;5096282;28;20055;-77
2021/10/22 06:16:12;;;;;;;9.48;2.67;;;;;;;;;;5096378;28;20107;-77
2021/10/22 06:18:46;;;;;;;12.30;2.88;;;;;;;;;;5096345;28;20032;-77
2021/10/22 06:21:27;;;;;;;16.30;3.22;;;;;;;;;;5096153;28;20086;-77
2021/10/22 06:23:56;;;;;;;8.25;3.80;;;;;;;;;;5095105;28;20036;-76
2021/10/22 06:26:23;;;;;;;13.07;2.72;;;;;;;;;;5095998;28;20036;-76
2021/10/22 06:28:49;;;;;;;18.42;3.45;;;;;;;;;;5095943;28;20071;-76
2021/10/22 06:31:15;;;;;;;17.38;3.30;;;;;;;;;;5094921;28;20044;-76
2021/10/22 06:33:41;;;;;;;9.95;2.70;;;;;;;;;;5096043;28;20036;-76
2021/10/22 06:36:07;;;;;;;17.20;3.88;;;;;;;;;;5094492;28;20405;-76
2021/10/22 06:38:33;;;;;;;24.90;6.60;;;;;;;;;;5096095;28;20083;-76
2021/10/22 06:40:58;;;;;;;17.75;4.82;;;;;;;;;;5095345;28;20494;-76
2021/10/22 06:43:24;;;;;;;14.50;4.20;;;;;;;;;;5095754;28;20043;-76
2021/10/22 06:45:51;;;;;;;16.10;3.78;;;;;;;;;;5095626;28;20043;-76
2021/10/22 06:48:17;;;;;;;19.40;3.10;;;;;;;;;;5095801;28;20043;-76
2021/10/22 06:50:44;;;;;;;17.23;3.20;;;;;;;;;;5095639;28;20389;-76
2021/10/22 06:53:10;;;;;;;14.75;3.33;;;;;;;;;;5094594;28;20028;-76
2021/10/22 06:55:37;;;;;;;14.60;2.70;;;;;;;;;;5095954;28;20036;-77
2021/10/22 06:58:04;;;;;;;14.02;2.75;;;;;;;;;;5094698;28;20322;-78
2021/10/22 07:00:30;;;;;;;15.60;3.45;;;;;;;;;;5099116;28;20032;-78
2021/10/22 07:02:56;;;;;;;17.13;3.92;;;;;;;;;;5102328;28;20062;-78
2021/10/22 07:08:09;;;;;;;12.75;2.80;;;;;;;;;;5075204;28;20052;-77
2021/10/22 07:10:35;;;;;;;10.05;3.25;;;;;;;;;;5096415;28;20119;-79
2021/10/22 07:13:03;;;;;;;14.60;2.83;;;;;;;;;;5099435;28;20067;-79
2021/10/22 07:15:30;;;;;;;21.13;3.75;;;;;;;;;;5100541;28;20040;-79
2021/10/22 07:17:56;;;;;;;16.58;3.60;;;;;;;;;;5099830;28;20032;-77
2021/10/22 07:20:23;;;;;;;13.60;3.67;;;;;;;;;;5081470;28;20063;-77
2021/10/22 07:22:54;;;;;;;15.10;2.83;;;;;;;;;;5095862;28;20039;-76
2021/10/22 07:25:22;;;;;;;11.63;2.92;;;;;;;;;;5093598;28;20040;-78
2021/10/22 07:27:49;;;;;;;15.77;3.47;;;;;;;;;;5100913;28;20101;-77
2021/10/22 07:30:15;;;;;;;17.13;2.72;;;;;;;;;;5097316;28;20084;-77
2021/10/22 07:32:41;;;;;;;14.77;3.30;;;;;;;;;;5100137;28;20516;-76
2021/10/22 07:35:08;;;;;;;15.65;3.03;;;;;;;;;;5114050;28;20374;-76
2021/10/22 07:37:34;;;;;;;12.43;3.58;;;;;;;;;;5120722;28;20020;-79
2021/10/22 07:40:00;;;;;;;16.15;2.80;;;;;;;;;;5120337;28;20134;-77
2021/10/22 07:42:26;;;;;;;13.50;2.75;;;;;;;;;;5114404;28;20039;-77
2021/10/22 07:44:56;;;;;;;11.65;2.90;;;;;;;;;;5105023;28;20036;-78
2021/10/22 07:47:23;;;;;;;20.75;3.63;;;;;;;;;;5099044;28;20078;-78
2021/10/22 07:49:50;;;;;;;18.77;3.67;;;;;;;;;;5099414;28;20040;-78
2021/10/22 07:52:18;;;;;;;15.95;2.88;;;;;;;;;;5095428;28;20473;-76
2021/10/22 07:54:45;;;;;;;12.75;2.88;;;;;;;;;;5093945;28;20043;-76
2021/10/22 07:57:10;;;;;;;9.98;2.75;;;;;;;;;;5093413;28;20036;-77
2021/10/22 07:59:37;;;;;;;13.43;2.75;;;;;;;;;;5095176;28;20093;-76
2021/10/22 08:02:02;;;;;;;13.10;2.97;;;;;;;;;;5094425;28;20036;-76
2021/10/22 08:04:27;;;;;;;19.13;3.88;;;;;;;;;;5094931;28;20481;-76
2021/10/22 08:06:53;;;;;;;15.80;3.10;;;;;;;;;;5094874;28;20098;-76
2021/10/22 08:09:18;;;;;;;21.02;3.70;;;;;;;;;;5095296;28;20036;-76
2021/10/22 08:11:44;;;;;;;10.45;2.50;;;;;;;;;;5093442;28;20040;-76
2021/10/22 08:14:09;;;;;;;13.25;2.92;;;;;;;;;;5094377;28;20056;-76
2021/10/22 08:16:35;;;;;;;12.15;2.58;;;;;;;;;;5105209;28;20036;-77
2021/10/22 08:19:01;;;;;;;17.40;3.03;;;;;;;;;;5115322;28;20038;-76
2021/10/22 08:24:00;;;;;;;10.35;2.45;;;;;;;;;;5115150;28;20435;-76
2021/10/22 08:26:26;;;;;;;11.48;3.53;;;;;;;;;;5116670;28;20052;-76
2021/10/22 08:28:51;;;;;;;15.73;3.20;;;;;;;;;;5115152;28;20027;-76
2021/10/22 08:31:16;;;;;;;12.07;2.75;;;;;;;;;;5115712;28;20039;-76
2021/10/22 08:33:42;;;;;;;16.33;3.17;;;;;;;;;;5115493;28;20044;-76
2021/10/22 08:36:08;;;;;;;10.27;2.95;;;;;;;;;;5116050;28;20027;-76
2021/10/22 08:38:35;;;;;;;12.45;2.97;;;;;;;;;;5115573;28;20055;-76
2021/10/22 08:41:02;;;;;;;13.90;2.50;;;;;;;;;;5114284;28;20048;-77
2021/10/22 08:43:28;;;;;;;13.60;3.03;;;;;;;;;;5113280;28;20450;-77
2021/10/22 08:45:55;;;;;;;16.63;3.10;;;;;;;;;;5073427;28;20040;-76
2021/10/22 08:48:20;;;;;;;12.50;2.88;;;;;;;;;;5073686;28;20367;-76
2021/10/22 08:50:46;;;;;;;18.77;3.20;;;;;;;;;;5074134;28;20051;-76
2021/10/22 08:53:12;;;;;;;15.00;3.08;;;;;;;;;;5072965;28;20116;-76
2021/10/22 08:55:38;;;;;;;13.38;2.38;;;;;;;;;;5073987;28;20036;-76
2021/10/22 08:58:03;;;;;;;17.42;2.97;;;;;;;;;;5073699;28;20033;-76
2021/10/22 09:00:28;;;;;;;15.23;3.28;;;;;;;;;;5073483;28;20040;-76
2021/10/22 09:03:07;;;;;;;19.75;3.20;;;;;;;;;;5073593;28;20036;-76
2021/10/22 09:05:32;;;;;;;11.20;3.30;;;;;;;;;;5073541;28;20413;-76
2021/10/22 09:07:58;;;;;;;15.50;2.65;;;;;;;;;;5073999;28;20115;-76
2021/10/22 09:10:27;;;;;;;13.75;3.90;;;;;;;;;;5074561;28;20040;-76
2021/10/22 09:13:03;;;;;;;6.72;1.80;;;;;;;;;;5074374;28;20041;-75
2021/10/22 09:15:34;;;;;;;15.18;2.83;;;;;;;;;;5090253;28;20046;-76
2021/10/22 09:18:07;;;;;;;12.52;2.47;;;;;;;;;;5093515;28;20032;-75
2021/10/22 09:20:47;;;;;;;8.80;2.28;;;;;;;;;;5093811;28;20032;-76
2021/10/22 09:23:28;;;;;;;10.88;2.55;;;;;;;;;;5093916;28;20044;-76
2021/10/22 09:26:15;;;;;;;15.82;2.42;;;;;;;;;;5079732;28;20420;-76
2021/10/22 09:28:41;;;;;;;14.45;2.35;;;;;;;;;;5096288;28;20135;-75
2021/10/22 09:31:11;;;;;;;12.80;2.60;;;;;;;;;;5097110;28;20154;-75
2021/10/22 09:34:01;;;;;;;17.73;2.60;;;;;;;;;;5097454;28;20043;-76
2021/10/22 09:36:32;;;;;;;11.65;2.33;;;;;;;;;;5095933;28;20043;-75
2021/10/22 09:39:13;;;;;;;16.00;2.90;;;;;;;;;;5097675;28;20082;-76
2021/10/22 09:41:53;;;;;;;13.77;2.75;;;;;;;;;;5097732;28;20477;-76
2021/10/22 09:44:30;;;;;;;14.88;2.80;;;;;;;;;;5098392;28;20064;-78
2021/10/22 09:47:04;;;;;;;11.45;2.42;;;;;;;;;;5097140;28;20028;-77
2021/10/22 09:49:38;;;;;;;11.75;2.60;;;;;;;;;;5098375;28;20036;-77
2021/10/22 09:52:14;;;;;;;13.60;2.30;;;;;;;;;;5097241;28;20050;-78
2021/10/22 09:54:40;;;;;;;11.40;2.20;;;;;;;;;;5097955;28;20040;-77
2021/10/22 09:57:07;;;;;;;10.15;2.40;;;;;;;;;;5098690;28;20043;-76
2021/10/22 09:59:33;;;;;;;11.80;2.30;;;;;;;;;;5097770;28;20115;-77
2021/10/22 10:02:02;;;;;;;13.15;2.40;;;;;;;;;;5096293;28;20073;-77
2021/10/22 10:04:29;;;;;;;9.73;2.38;;;;;;;;;;5095181;28;20520;-76
2021/10/22 10:06:56;;;;;;;7.97;1.83;;;;;;;;;;5095648;28;20042;-77
2021/10/22 10:09:22;;;;;;;15.02;3.13;;;;;;;;;;5096660;28;20031;-76
2021/10/22 10:11:49;;;;;;;15.88;3.00;;;;;;;;;;5080204;28;20024;-78
2021/10/22 10:14:16;;;;;;;14.80;2.97;;;;;;;;;;5102119;28;20063;-77
2021/10/22 10:16:44;;;;;;;15.48;3.50;;;;;;;;;;5097537;28;20370;-78
2021/10/22 10:19:26;;;;;;;8.35;2.50;;;;;;;;;;5096455;28;20032;-77
2021/10/22 10:21:59;;;;;;;9.25;2.13;;;;;;;;;;5096927;28;20092;-76
2021/10/22 10:24:56;;;;;;;9.32;2.03;;;;;;;;;;5095765;28;20042;-77
2021/10/22 10:27:24;;;;;;;11.50;2.83;;;;;;;;;;5096461;28;20048;-76
2021/10/22 10:29:52;;;;;;;14.80;2.90;;;;;;;;;;5099200;28;20036;-81
2021/10/22 10:32:24;;;;;;;12.43;4.07;;;;;;;;;;5107633;28;20028;-80
2021/10/22 10:35:09;;;;;;;16.85;3.42;;;;;;;;;;5107097;28;20093;-79
2021/10/22 10:37:38;;;;;;;12.35;2.75;;;;;;;;;;5106677;28;20087;-78
2021/10/22 10:40:12;;;;;;;18.38;2.30;;;;;;;;;;5104045;28;20040;-80
2021/10/22 10:42:47;;;;;;;9.75;2.85;;;;;;;;;;5101200;28;20032;-79
2021/10/22 10:45:39;;;;;;;11.98;2.67;;;;;;;;;;5098463;28;20032;-78
2021/10/22 10:48:17;;;;;;;12.93;2.58;;;;;;;;;;5100990;28;20032;-79
2021/10/22 10:50:49;;;;;;;10.48;2.20;;;;;;;;;;5104754;28;20047;-80
2021/10/22 10:53:39;;;;;;;10.02;3.58;;;;;;;;;;5100309;28;20480;-81
2021/10/22 10:56:34;;;;;;;10.27;2.38;;;;;;;;;;5081700;28;20044;-82
2021/10/22 10:59:09;;;;;;;10.48;2.40;;;;;;;;;;5109604;28;20032;-83
2021/10/22 11:01:35;;;;;;;12.85;2.60;;;;;;;;;;5112196;28;20044;-83
2021/10/22 11:04:03;;;;;;;16.05;3.42;;;;;;;;;;5118106;28;20497;-82
2021/10/22 11:06:28;;;;;;;10.68;2.28;;;;;;;;;;5118867;28;20425;-79
2021/10/22 11:08:53;;;;;;;11.43;2.20;;;;;;;;;;5102707;28;20054;-76
2021/10/22 11:11:26;;;;;;;13.20;1.80;;;;;;;;;;5095218;28;20040;-77
2021/10/22 11:13:59;;;;;;;7.47;2.10;;;;;;;;;;5094393;28;20043;-77
2021/10/22 11:16:41;;;;;;;6.45;1.95;;;;;;;;;;5095102;28;20036;-78
2021/10/22 11:19:20;;;;;;;8.10;1.85;;;;;;;;;;5095079;28;20032;-77
2021/10/22 11:22:01;;;;;;;8.05;2.47;;;;;;;;;;5094966;28;20032;-78
2021/10/22 11:24:29;;;;;;;9.07;1.90;;;;;;;;;;5095034;28;20032;-78
2021/10/22 11:26:59;;;;;;;7.53;1.92;;;;;;;;;;5094710;28;20039;-77
2021/10/22 11:29:25;;;;;;;14.38;2.50;;;;;;;;;;5094747;28;20119;-77
2021/10/22 11:32:03;;;;;;;12.15;2.20;;;;;;;;;;5093520;28;20067;-77
2021/10/22 11:34:36;;;;;;;9.40;2.17;;;;;;;;;;5094991;28;20031;-77
2021/10/22 11:37:08;;;;;;;7.13;1.95;;;;;;;;;;5094732;28;20496;-77
2021/10/22 11:39:39;;;;;;;8.38;2.22;;;;;;;;;;5094531;28;20395;-77
2021/10/22 11:42:30;;;;;;;9.80;2.03;;;;;;;;;;5094238;28;20050;-77
2021/10/22 11:45:07;;;;;;;8.63;2.10;;;;;;;;;;5092162;28;20507;-77
2021/10/22 11:47:55;;;;;;;10.73;3.38;;;;;;;;;;5092963;28;20147;-77
2021/10/22 11:50:31;;;;;;;11.38;2.35;;;;;;;;;;5094586;28;20127;-77
2021/10/22 11:53:06;;;;;;;5.82;1.77;;;;;;;;;;5093991;28;20445;-77
2021/10/22 11:55:33;;;;;;;15.57;2.30;;;;;;;;;;5076282;28;20032;-77
2021/10/22 11:58:05;;;;;;;11.10;2.20;;;;;;;;;;5093398;28;20032;-77
2021/10/22 12:00:32;;;;;;;10.13;2.20;;;;;;;;;;5093097;28;20058;-77
2021/10/22 12:02:58;;;;;;;13.40;2.55;;;;;;;;;;5094332;28;20082;-77
2021/10/22 12:05:24;;;;;;;8.82;1.80;;;;;;;;;;5093620;28;20466;-77
2021/10/22 12:07:54;;;;;;;7.90;1.85;;;;;;;;;;5094098;28;20036;-77
2021/10/22 12:10:19;;;;;;;13.35;1.92;;;;;;;;;;5093901;28;20370;-77
2021/10/22 12:12:48;;;;;;;9.05;1.92;;;;;;;;;;5093021;28;20046;-77
2021/10/22 12:15:19;;;;;;;10.13;2.13;;;;;;;;;;5094477;28;20461;-77
2021/10/22 12:17:46;;;;;;;9.30;1.85;;;;;;;;;;5093825;28;20024;-77
2021/10/22 12:20:11;;;;;;;7.47;1.70;;;;;;;;;;5094148;28;20032;-78
2021/10/22 12:22:44;;;;;;;8.65;2.53;;;;;;;;;;5094051;28;20034;-77
2021/10/22 12:25:20;;;;;;;11.82;2.05;;;;;;;;;;5093718;28;20533;-77
2021/10/22 12:27:52;;;;;;;8.40;2.10;;;;;;;;;;5093263;28;20032;-78
2021/10/22 12:30:20;;;;;;;7.65;2.13;;;;;;;;;;5092490;28;20079;-77
2021/10/22 12:32:49;;;;;;;10.05;3.25;;;;;;;;;;5092385;28;20023;-77
2021/10/22 12:35:35;;;;;;;16.58;2.50;;;;;;;;;;5093370;28;20077;-77
2021/10/22 12:38:09;;;;;;;12.27;2.20;;;;;;;;;;5093697;28;20027;-77
2021/10/22 12:40:38;;;;;;;9.85;2.45;;;;;;;;;;5093428;28;20075;-77
2021/10/22 12:43:13;;;;;;;10.30;2.10;;;;;;;;;;5098979;28;20070;-77
2021/10/22 12:45:49;;;;;;;8.88;2.67;;;;;;;;;;5113890;28;20124;-77
2021/10/22 12:48:20;;;;;;;7.05;1.77;;;;;;;;;;5113835;28;20032;-77
2021/10/22 12:50:47;;;;;;;7.53;1.90;;;;;;;;;;5113679;28;20373;-77
2021/10/22 12:53:15;;;;;;;7.90;2.83;;;;;;;;;;5112613;28;20032;-77
2021/10/22 12:55:43;;;;;;;11.90;2.72;;;;;;;;;;5113678;28;20031;-77
2021/10/22 12:58:19;;;;;;;12.20;2.65;;;;;;;;;;5112825;28;20035;-77
2021/10/22 13:01:03;;;;;;;10.00;2.50;;;;;;;;;;5113788;28;20132;-77
2021/10/22 13:03:29;;;;;;;10.57;2.05;;;;;;;;;;5113518;28;20469;-78
2021/10/22 13:05:54;;;;;;;10.23;2.20;;;;;;;;;;5114543;28;20032;-78
2021/10/22 13:08:36;;;;;;;13.70;2.22;;;;;;;;;;5113630;28;20355;-77
2021/10/22 13:14:39;;;;;;;18.80;2.67;;;;;;;;;;5052622;28;20387;-77
2021/10/22 13:22:45;;;;;;;7.18;2.10;;;;;;;;;;5091985;28;20036;-77
2021/10/22 13:25:10;;;;;;;10.45;2.28;;;;;;;;;;5093315;28;20039;-77
2021/10/22 13:27:36;;;;;;;8.43;2.17;;;;;;;;;;5092709;28;20162;-77
2021/10/22 13:30:11;;;;;;;9.63;2.28;;;;;;;;;;5092346;28;20424;-77
2021/10/22 13:32:37;;;;;;;8.20;1.98;;;;;;;;;;5092489;28;20032;-77
2021/10/22 13:35:05;;;;;;;10.88;2.50;;;;;;;;;;5092698;28;20036;-77
2021/10/22 13:37:31;;;;;;;9.02;2.17;;;;;;;;;;5092753;28;20059;-77
2021/10/22 13:39:56;;;;;;;6.55;1.98;;;;;;;;;;5083883;28;20068;-77
2021/10/22 13:42:21;;;;;;;11.57;2.75;;;;;;;;;;5078686;28;20440;-77
2021/10/22 13:44:47;;;;;;;10.90;2.72;;;;;;;;;;5072907;28;20040;-77
2021/10/22 13:47:12;;;;;;;15.73;3.15;;;;;;;;;;5072620;28;20044;-77
2021/10/22 13:49:38;;;;;;;18.65;2.80;;;;;;;;;;5072700;28;20078;-77
2021/10/22 13:52:05;;;;;;;11.20;2.47;;;;;;;;;;5072350;28;20481;-77
2021/10/22 13:54:31;;;;;;;12.70;2.70;;;;;;;;;;5071895;28;20090;-77
2021/10/22 13:56:58;;;;;;;12.07;2.58;;;;;;;;;;5072352;28;20600;-77
2021/10/22 13:59:26;;;;;;;15.23;2.55;;;;;;;;;;5072440;28;20040;-77
2021/10/22 14:01:52;;;;;;;10.52;2.38;;;;;;;;;;5071392;28;20040;-77
2021/10/22 14:04:17;;;;;;;9.38;2.17;;;;;;;;;;5088662;28;20140;-78
2021/10/22 14:06:43;;;;;;;13.60;2.90;;;;;;;;;;5093535;28;20047;-78
2021/10/22 14:09:09;;;;;;;10.32;2.63;;;;;;;;;;5083260;28;20094;-78
2021/10/22 14:11:43;;;;;;;8.40;2.92;;;;;;;;;;5086341;28;20454;-78
2021/10/22 14:14:18;;;;;;;12.80;2.67;;;;;;;;;;5087655;28;20354;-77
2021/10/22 14:16:58;;;;;;;16.35;4.07;;;;;;;;;;5086491;28;20058;-79
2021/10/22 14:30:16;;;;;;;10.63;2.60;;;;;;;;;;5094148;28;20036;-79
2021/10/22 14:32:41;;;;;;;9.80;1.80;;;;;;;;;;5096866;28;20063;-79
2021/10/22 14:35:07;;;;;;;8.82;2.25;;;;;;;;;;5100015;28;20036;-79
2021/10/22 14:37:33;;;;;;;11.13;2.22;;;;;;;;;;5094079;28;20028;-80
2021/10/22 14:40:00;;;;;;;8.90;2.55;;;;;;;;;;5098212;28;20044;-79
2021/10/22 14:42:31;;;;;;;8.73;1.65;;;;;;;;;;5093074;28;20062;-79
2021/10/22 14:44:59;;;;;;;8.10;2.20;;;;;;;;;;5093300;28;20036;-78
2021/10/22 14:47:36;;;;;;;10.90;2.42;;;;;;;;;;5093297;28;20032;-78
2021/10/22 14:50:05;;;;;;;12.68;2.25;;;;;;;;;;5088275;28;20064;-78
2021/10/22 14:57:44;;;;;;;11.75;2.30;;;;;;;;;;5086154;28;20040;-78
2021/10/22 15:00:11;;;;;;;8.00;2.15;;;;;;;;;;5090168;28;20351;-78
2021/10/22 15:02:36;;;;;;;11.32;2.08;;;;;;;;;;5089481;28;20032;-78
2021/10/22 15:05:02;;;;;;;8.25;1.40;;;;;;;;;;5087646;28;20086;-78
2021/10/22 15:07:27;;;;;;;3.17;1.10;;;;;;;;;;5091948;28;20530;-78
2021/10/22 15:09:53;;;;;;;10.88;2.00;;;;;;;;;;5087903;28;20071;-78